sensor_id;sensor_type;location;lat;lon;timestamp;P1;durP1;ratioP1;P2;durP2;ratioP2
1799;SDS011;919;48.274;12.292;2022-08-20T00:01:45;4.17;;;3.77;;
1799;SDS011;919;48.274;12.292;2022-08-20T00:04:12;3.80;;;3.50;;
1799;SDS011;919;48.274;12.292;2022-08-20T00:06:39;3.27;;;2.63;;
1799;SDS011;919;48.274;12.292;2022-08-20T00:09:07;4.13;;;3.70;;
1799;SDS011;919;48.274;12.292;2022-08-20T00:11:34;4.20;;;3.80;;
1799;SDS011;919;48.274;12.292;2022-08-20T00:14:02;3.90;;;3.63;;
1799;SDS011;919;48.274;12.292;2022-08-20T00:16:31;3.80;;;3.50;;
1799;SDS011;919;48.274;12.292;2022-08-20T00:18:59;3.63;;;3.33;;
1799;SDS011;919;48.274;12.292;2022-08-20T00:21:26;4.43;;;4.10;;
1799;SDS011;919;48.274;12.292;2022-08-20T00:23:54;5.03;;;4.17;;
1799;SDS011;919;48.274;12.292;2022-08-20T00:26:23;5.50;;;3.80;;
1799;SDS011;919;48.274;12.292;2022-08-20T00:28:50;3.87;;;3.53;;
1799;SDS011;919;48.274;12.292;2022-08-20T00:31:18;4.70;;;4.10;;
1799;SDS011;919;48.274;12.292;2022-08-20T00:33:47;3.90;;;3.57;;
1799;SDS011;919;48.274;12.292;2022-08-20T00:36:13;3.70;;;3.40;;
1799;SDS011;919;48.274;12.292;2022-08-20T00:38:42;4.60;;;4.20;;
1799;SDS011;919;48.274;12.292;2022-08-20T00:41:11;5.67;;;3.90;;
1799;SDS011;919;48.274;12.292;2022-08-20T00:43:48;6.07;;;4.17;;
1799;SDS011;919;48.274;12.292;2022-08-20T00:46:17;4.00;;;3.60;;
1799;SDS011;919;48.274;12.292;2022-08-20T00:48:47;4.37;;;3.97;;
1799;SDS011;919;48.274;12.292;2022-08-20T00:51:17;4.53;;;4.13;;
1799;SDS011;919;48.274;12.292;2022-08-20T00:53:51;3.73;;;3.43;;
1799;SDS011;919;48.274;12.292;2022-08-20T00:56:19;4.53;;;4.00;;
1799;SDS011;919;48.274;12.292;2022-08-20T00:58:49;4.43;;;4.10;;
1799;SDS011;919;48.274;12.292;2022-08-20T01:01:17;3.87;;;3.57;;
1799;SDS011;919;48.274;12.292;2022-08-20T01:03:44;4.87;;;4.20;;
1799;SDS011;919;48.274;12.292;2022-08-20T01:06:10;4.50;;;3.87;;
1799;SDS011;919;48.274;12.292;2022-08-20T01:08:38;4.30;;;3.90;;
1799;SDS011;919;48.274;12.292;2022-08-20T01:11:07;4.63;;;4.23;;
1799;SDS011;919;48.274;12.292;2022-08-20T01:13:37;4.57;;;4.10;;
1799;SDS011;919;48.274;12.292;2022-08-20T01:16:08;4.37;;;3.97;;
1799;SDS011;919;48.274;12.292;2022-08-20T01:18:39;3.67;;;3.33;;
1799;SDS011;919;48.274;12.292;2022-08-20T01:21:07;4.57;;;4.17;;
1799;SDS011;919;48.274;12.292;2022-08-20T01:23:37;4.20;;;3.90;;
1799;SDS011;919;48.274;12.292;2022-08-20T01:26:10;4.00;;;3.70;;
1799;SDS011;919;48.274;12.292;2022-08-20T01:28:40;4.77;;;4.37;;
1799;SDS011;919;48.274;12.292;2022-08-20T01:31:09;3.90;;;3.60;;
1799;SDS011;919;48.274;12.292;2022-08-20T01:33:39;4.70;;;4.30;;
1799;SDS011;919;48.274;12.292;2022-08-20T01:36:06;3.70;;;3.40;;
1799;SDS011;919;48.274;12.292;2022-08-20T01:38:34;3.70;;;3.40;;
1799;SDS011;919;48.274;12.292;2022-08-20T01:41:14;4.40;;;4.00;;
1799;SDS011;919;48.274;12.292;2022-08-20T01:43:55;4.10;;;3.70;;
1799;SDS011;919;48.274;12.292;2022-08-20T01:46:23;4.00;;;3.60;;
1799;SDS011;919;48.274;12.292;2022-08-20T01:48:52;6.03;;;4.00;;
1799;SDS011;919;48.274;12.292;2022-08-20T01:51:21;6.13;;;4.67;;
1799;SDS011;919;48.274;12.292;2022-08-20T01:53:53;4.30;;;4.00;;
1799;SDS011;919;48.274;12.292;2022-08-20T01:56:27;4.80;;;3.83;;
1799;SDS011;919;48.274;12.292;2022-08-20T01:58:56;5.27;;;4.17;;
1799;SDS011;919;48.274;12.292;2022-08-20T02:01:25;5.03;;;4.53;;
1799;SDS011;919;48.274;12.292;2022-08-20T02:03:54;6.57;;;4.73;;
1799;SDS011;919;48.274;12.292;2022-08-20T02:06:22;4.97;;;4.57;;
1799;SDS011;919;48.274;12.292;2022-08-20T02:08:51;4.63;;;4.17;;
1799;SDS011;919;48.274;12.292;2022-08-20T02:11:19;4.27;;;3.90;;
1799;SDS011;919;48.274;12.292;2022-08-20T02:13:48;4.53;;;4.13;;
1799;SDS011;919;48.274;12.292;2022-08-20T02:16:17;4.60;;;4.20;;
1799;SDS011;919;48.274;12.292;2022-08-20T02:18:48;3.93;;;3.63;;
1799;SDS011;919;48.274;12.292;2022-08-20T02:21:18;3.90;;;3.60;;
1799;SDS011;919;48.274;12.292;2022-08-20T02:23:45;5.00;;;4.60;;
1799;SDS011;919;48.274;12.292;2022-08-20T02:26:12;4.20;;;3.90;;
1799;SDS011;919;48.274;12.292;2022-08-20T02:28:42;5.30;;;4.80;;
1799;SDS011;919;48.274;12.292;2022-08-20T02:31:14;3.67;;;3.37;;
1799;SDS011;919;48.274;12.292;2022-08-20T02:33:41;4.57;;;4.17;;
1799;SDS011;919;48.274;12.292;2022-08-20T02:36:09;4.60;;;3.80;;
1799;SDS011;919;48.274;12.292;2022-08-20T02:38:36;4.17;;;3.77;;
1799;SDS011;919;48.274;12.292;2022-08-20T02:41:03;4.67;;;4.27;;
1799;SDS011;919;48.274;12.292;2022-08-20T02:43:30;4.63;;;4.10;;
1799;SDS011;919;48.274;12.292;2022-08-20T02:45:57;4.50;;;4.20;;
1799;SDS011;919;48.274;12.292;2022-08-20T02:48:26;5.30;;;4.50;;
1799;SDS011;919;48.274;12.292;2022-08-20T02:50:54;4.37;;;3.97;;
1799;SDS011;919;48.274;12.292;2022-08-20T02:53:23;4.63;;;4.23;;
1799;SDS011;919;48.274;12.292;2022-08-20T02:55:50;6.10;;;5.50;;
1799;SDS011;919;48.274;12.292;2022-08-20T02:58:17;6.13;;;5.57;;
1799;SDS011;919;48.274;12.292;2022-08-20T03:00:45;6.50;;;5.90;;
1799;SDS011;919;48.274;12.292;2022-08-20T03:03:13;7.50;;;6.80;;
1799;SDS011;919;48.274;12.292;2022-08-20T03:05:45;8.47;;;7.67;;
1799;SDS011;919;48.274;12.292;2022-08-20T03:08:12;7.50;;;6.80;;
1799;SDS011;919;48.274;12.292;2022-08-20T03:10:40;7.67;;;7.00;;
1799;SDS011;919;48.274;12.292;2022-08-20T03:13:09;6.13;;;5.63;;
1799;SDS011;919;48.274;12.292;2022-08-20T03:15:37;6.70;;;6.10;;
1799;SDS011;919;48.274;12.292;2022-08-20T03:18:05;6.87;;;6.27;;
1799;SDS011;919;48.274;12.292;2022-08-20T03:20:31;6.17;;;5.57;;
1799;SDS011;919;48.274;12.292;2022-08-20T03:22:59;6.97;;;6.27;;
1799;SDS011;919;48.274;12.292;2022-08-20T03:25:26;7.97;;;7.17;;
1799;SDS011;919;48.274;12.292;2022-08-20T03:27:54;7.70;;;7.00;;
1799;SDS011;919;48.274;12.292;2022-08-20T03:30:22;7.67;;;6.97;;
1799;SDS011;919;48.274;12.292;2022-08-20T03:32:51;7.00;;;6.30;;
1799;SDS011;919;48.274;12.292;2022-08-20T03:35:19;8.20;;;7.17;;
1799;SDS011;919;48.274;12.292;2022-08-20T03:37:48;6.80;;;6.20;;
1799;SDS011;919;48.274;12.292;2022-08-20T03:40:18;6.80;;;6.10;;
1799;SDS011;919;48.274;12.292;2022-08-20T03:42:46;6.87;;;6.27;;
1799;SDS011;919;48.274;12.292;2022-08-20T03:45:13;6.80;;;6.20;;
1799;SDS011;919;48.274;12.292;2022-08-20T03:47:40;7.93;;;7.13;;
1799;SDS011;919;48.274;12.292;2022-08-20T03:50:08;9.53;;;8.63;;
1799;SDS011;919;48.274;12.292;2022-08-20T03:52:37;12.60;;;9.87;;
1799;SDS011;919;48.274;12.292;2022-08-20T03:55:04;9.30;;;8.40;;
1799;SDS011;919;48.274;12.292;2022-08-20T03:57:33;8.57;;;7.70;;
1799;SDS011;919;48.274;12.292;2022-08-20T04:00:00;7.47;;;6.57;;
1799;SDS011;919;48.274;12.292;2022-08-20T04:02:30;6.70;;;6.03;;
1799;SDS011;919;48.274;12.292;2022-08-20T04:04:58;8.23;;;7.37;;
1799;SDS011;919;48.274;12.292;2022-08-20T04:07:24;8.50;;;7.70;;
1799;SDS011;919;48.274;12.292;2022-08-20T04:09:51;9.77;;;8.80;;
1799;SDS011;919;48.274;12.292;2022-08-20T04:12:20;8.20;;;7.40;;
1799;SDS011;919;48.274;12.292;2022-08-20T04:14:49;8.07;;;7.17;;
1799;SDS011;919;48.274;12.292;2022-08-20T04:17:16;8.00;;;7.00;;
1799;SDS011;919;48.274;12.292;2022-08-20T04:19:45;7.80;;;7.10;;
1799;SDS011;919;48.274;12.292;2022-08-20T04:22:12;9.90;;;9.00;;
1799;SDS011;919;48.274;12.292;2022-08-20T04:24:39;7.90;;;7.20;;
1799;SDS011;919;48.274;12.292;2022-08-20T04:27:06;9.00;;;8.20;;
1799;SDS011;919;48.274;12.292;2022-08-20T04:29:35;10.77;;;9.73;;
1799;SDS011;919;48.274;12.292;2022-08-20T04:32:04;9.83;;;8.93;;
1799;SDS011;919;48.274;12.292;2022-08-20T04:34:31;9.70;;;8.80;;
1799;SDS011;919;48.274;12.292;2022-08-20T04:36:59;7.93;;;7.23;;
1799;SDS011;919;48.274;12.292;2022-08-20T04:39:25;10.27;;;9.13;;
1799;SDS011;919;48.274;12.292;2022-08-20T04:41:52;9.43;;;8.53;;
1799;SDS011;919;48.274;12.292;2022-08-20T04:44:18;8.57;;;7.73;;
1799;SDS011;919;48.274;12.292;2022-08-20T04:46:45;8.40;;;7.07;;
1799;SDS011;919;48.274;12.292;2022-08-20T04:49:13;7.97;;;7.17;;
1799;SDS011;919;48.274;12.292;2022-08-20T04:51:40;8.30;;;7.50;;
1799;SDS011;919;48.274;12.292;2022-08-20T04:54:07;7.87;;;7.07;;
1799;SDS011;919;48.274;12.292;2022-08-20T04:56:33;7.50;;;6.70;;
1799;SDS011;919;48.274;12.292;2022-08-20T04:59:04;8.47;;;6.57;;
1799;SDS011;919;48.274;12.292;2022-08-20T05:01:32;6.80;;;6.20;;
1799;SDS011;919;48.274;12.292;2022-08-20T05:03:59;6.93;;;6.23;;
1799;SDS011;919;48.274;12.292;2022-08-20T05:06:28;7.30;;;6.40;;
1799;SDS011;919;48.274;12.292;2022-08-20T05:08:57;8.17;;;7.37;;
1799;SDS011;919;48.274;12.292;2022-08-20T05:11:25;7.03;;;6.33;;
1799;SDS011;919;48.274;12.292;2022-08-20T05:13:52;6.53;;;5.70;;
1799;SDS011;919;48.274;12.292;2022-08-20T05:16:19;7.67;;;6.97;;
1799;SDS011;919;48.274;12.292;2022-08-20T05:18:48;6.53;;;5.93;;
1799;SDS011;919;48.274;12.292;2022-08-20T05:21:16;6.03;;;5.43;;
1799;SDS011;919;48.274;12.292;2022-08-20T05:23:44;6.53;;;5.90;;
1799;SDS011;919;48.274;12.292;2022-08-20T05:26:10;7.40;;;6.70;;
1799;SDS011;919;48.274;12.292;2022-08-20T05:28:39;8.60;;;7.10;;
1799;SDS011;919;48.274;12.292;2022-08-20T05:31:06;8.40;;;7.40;;
1799;SDS011;919;48.274;12.292;2022-08-20T05:33:34;7.50;;;6.17;;
1799;SDS011;919;48.274;12.292;2022-08-20T05:36:02;5.87;;;5.37;;
1799;SDS011;919;48.274;12.292;2022-08-20T05:38:31;7.20;;;6.50;;
1799;SDS011;919;48.274;12.292;2022-08-20T05:41:00;6.10;;;5.50;;
1799;SDS011;919;48.274;12.292;2022-08-20T05:43:27;5.80;;;5.20;;
1799;SDS011;919;48.274;12.292;2022-08-20T05:45:55;6.70;;;6.03;;
1799;SDS011;919;48.274;12.292;2022-08-20T05:48:23;6.60;;;5.80;;
1799;SDS011;919;48.274;12.292;2022-08-20T05:50:50;7.00;;;6.30;;
1799;SDS011;919;48.274;12.292;2022-08-20T05:53:19;7.07;;;6.47;;
1799;SDS011;919;48.274;12.292;2022-08-20T05:55:47;7.93;;;7.13;;
1799;SDS011;919;48.274;12.292;2022-08-20T05:58:16;7.33;;;6.67;;
1799;SDS011;919;48.274;12.292;2022-08-20T06:00:44;10.17;;;9.23;;
1799;SDS011;919;48.274;12.292;2022-08-20T06:03:12;9.60;;;8.70;;
1799;SDS011;919;48.274;12.292;2022-08-20T06:05:56;9.43;;;8.53;;
1799;SDS011;919;48.274;12.292;2022-08-20T06:08:23;8.93;;;8.03;;
1799;SDS011;919;48.274;12.292;2022-08-20T06:10:50;9.17;;;8.23;;
1799;SDS011;919;48.274;12.292;2022-08-20T06:13:18;14.10;;;9.73;;
1799;SDS011;919;48.274;12.292;2022-08-20T06:15:44;8.50;;;7.50;;
1799;SDS011;919;48.274;12.292;2022-08-20T06:18:11;8.93;;;8.03;;
1799;SDS011;919;48.274;12.292;2022-08-20T06:20:38;9.03;;;8.13;;
1799;SDS011;919;48.274;12.292;2022-08-20T06:23:05;10.67;;;9.53;;
1799;SDS011;919;48.274;12.292;2022-08-20T06:25:32;12.80;;;11.50;;
1799;SDS011;919;48.274;12.292;2022-08-20T06:28:00;13.47;;;12.07;;
1799;SDS011;919;48.274;12.292;2022-08-20T06:30:28;13.77;;;12.37;;
1799;SDS011;919;48.274;12.292;2022-08-20T06:32:55;17.50;;;15.60;;
1799;SDS011;919;48.274;12.292;2022-08-20T06:35:22;20.60;;;18.33;;
1799;SDS011;919;48.274;12.292;2022-08-20T06:37:49;20.30;;;16.97;;
1799;SDS011;919;48.274;12.292;2022-08-20T06:40:18;19.67;;;17.50;;
1799;SDS011;919;48.274;12.292;2022-08-20T06:42:49;19.20;;;16.13;;
1799;SDS011;919;48.274;12.292;2022-08-20T06:45:20;21.20;;;17.03;;
1799;SDS011;919;48.274;12.292;2022-08-20T06:47:50;21.20;;;18.13;;
1799;SDS011;919;48.274;12.292;2022-08-20T06:50:20;21.67;;;19.30;;
1799;SDS011;919;48.274;12.292;2022-08-20T06:52:48;22.53;;;18.40;;
1799;SDS011;919;48.274;12.292;2022-08-20T06:55:15;20.83;;;18.57;;
1799;SDS011;919;48.274;12.292;2022-08-20T06:57:42;19.60;;;17.40;;
1799;SDS011;919;48.274;12.292;2022-08-20T07:00:12;20.90;;;17.80;;
1799;SDS011;919;48.274;12.292;2022-08-20T07:02:40;21.33;;;18.60;;
1799;SDS011;919;48.274;12.292;2022-08-20T07:05:09;20.77;;;17.73;;
1799;SDS011;919;48.274;12.292;2022-08-20T07:07:36;19.03;;;16.63;;
1799;SDS011;919;48.274;12.292;2022-08-20T07:10:04;21.63;;;16.67;;
1799;SDS011;919;48.274;12.292;2022-08-20T07:12:32;21.23;;;17.70;;
1799;SDS011;919;48.274;12.292;2022-08-20T07:15:00;19.50;;;17.40;;
1799;SDS011;919;48.274;12.292;2022-08-20T07:17:27;18.63;;;16.67;;
1799;SDS011;919;48.274;12.292;2022-08-20T07:19:54;19.50;;;17.50;;
1799;SDS011;919;48.274;12.292;2022-08-20T07:22:23;18.27;;;16.33;;
1799;SDS011;919;48.274;12.292;2022-08-20T07:24:51;18.63;;;16.50;;
1799;SDS011;919;48.274;12.292;2022-08-20T07:27:20;19.20;;;17.13;;
1799;SDS011;919;48.274;12.292;2022-08-20T07:29:48;19.10;;;16.97;;
1799;SDS011;919;48.274;12.292;2022-08-20T07:32:33;19.10;;;16.23;;
1799;SDS011;919;48.274;12.292;2022-08-20T07:35:01;18.10;;;16.23;;
1799;SDS011;919;48.274;12.292;2022-08-20T07:37:30;17.10;;;15.23;;
1799;SDS011;919;48.274;12.292;2022-08-20T07:39:57;17.33;;;15.43;;
1799;SDS011;919;48.274;12.292;2022-08-20T07:42:23;16.70;;;14.90;;
1799;SDS011;919;48.274;12.292;2022-08-20T07:44:50;17.70;;;15.50;;
1799;SDS011;919;48.274;12.292;2022-08-20T07:47:17;19.07;;;16.93;;
1799;SDS011;919;48.274;12.292;2022-08-20T07:49:44;19.50;;;17.37;;
1799;SDS011;919;48.274;12.292;2022-08-20T07:52:10;17.80;;;15.90;;
1799;SDS011;919;48.274;12.292;2022-08-20T07:54:39;17.10;;;15.33;;
1799;SDS011;919;48.274;12.292;2022-08-20T07:57:06;20.37;;;16.57;;
1799;SDS011;919;48.274;12.292;2022-08-20T07:59:35;15.30;;;13.77;;
1799;SDS011;919;48.274;12.292;2022-08-20T08:02:03;16.10;;;14.50;;
1799;SDS011;919;48.274;12.292;2022-08-20T08:04:30;15.93;;;14.43;;
1799;SDS011;919;48.274;12.292;2022-08-20T08:06:57;16.37;;;14.77;;
1799;SDS011;919;48.274;12.292;2022-08-20T08:09:24;22.27;;;16.97;;
1799;SDS011;919;48.274;12.292;2022-08-20T08:11:55;20.13;;;18.03;;
1799;SDS011;919;48.274;12.292;2022-08-20T08:14:26;18.93;;;16.40;;
1799;SDS011;919;48.274;12.292;2022-08-20T08:16:59;17.13;;;15.20;;
1799;SDS011;919;48.274;12.292;2022-08-20T08:19:28;20.50;;;16.37;;
1799;SDS011;919;48.274;12.292;2022-08-20T08:22:03;19.13;;;15.47;;
1799;SDS011;919;48.274;12.292;2022-08-20T08:24:32;17.37;;;15.53;;
1799;SDS011;919;48.274;12.292;2022-08-20T08:27:01;18.03;;;15.93;;
1799;SDS011;919;48.274;12.292;2022-08-20T08:29:28;16.27;;;14.60;;
1799;SDS011;919;48.274;12.292;2022-08-20T08:31:55;17.90;;;14.50;;
1799;SDS011;919;48.274;12.292;2022-08-20T08:34:26;16.53;;;14.83;;
1799;SDS011;919;48.274;12.292;2022-08-20T08:36:54;16.97;;;14.90;;
1799;SDS011;919;48.274;12.292;2022-08-20T08:39:22;16.40;;;13.90;;
1799;SDS011;919;48.274;12.292;2022-08-20T08:41:51;15.30;;;13.50;;
1799;SDS011;919;48.274;12.292;2022-08-20T08:44:24;15.27;;;13.73;;
1799;SDS011;919;48.274;12.292;2022-08-20T08:46:55;15.80;;;13.83;;
1799;SDS011;919;48.274;12.292;2022-08-20T08:49:30;14.23;;;12.73;;
1799;SDS011;919;48.274;12.292;2022-08-20T08:52:00;17.43;;;14.70;;
1799;SDS011;919;48.274;12.292;2022-08-20T08:54:32;15.87;;;14.33;;
1799;SDS011;919;48.274;12.292;2022-08-20T08:57:01;17.17;;;15.37;;
1799;SDS011;919;48.274;12.292;2022-08-20T08:59:33;19.53;;;16.00;;
1799;SDS011;919;48.274;12.292;2022-08-20T09:02:00;19.60;;;17.30;;
1799;SDS011;919;48.274;12.292;2022-08-20T09:04:28;17.80;;;16.00;;
1799;SDS011;919;48.274;12.292;2022-08-20T09:06:58;16.20;;;14.50;;
1799;SDS011;919;48.274;12.292;2022-08-20T09:09:29;13.60;;;12.20;;
1799;SDS011;919;48.274;12.292;2022-08-20T09:12:02;17.73;;;14.57;;
1799;SDS011;919;48.274;12.292;2022-08-20T09:14:32;17.73;;;15.10;;
1799;SDS011;919;48.274;12.292;2022-08-20T09:17:00;14.53;;;12.67;;
1799;SDS011;919;48.274;12.292;2022-08-20T09:19:27;18.83;;;14.47;;
1799;SDS011;919;48.274;12.292;2022-08-20T09:21:54;14.27;;;12.87;;
1799;SDS011;919;48.274;12.292;2022-08-20T09:24:21;19.30;;;17.30;;
1799;SDS011;919;48.274;12.292;2022-08-20T09:26:47;22.63;;;18.57;;
1799;SDS011;919;48.274;12.292;2022-08-20T09:29:14;19.93;;;17.67;;
1799;SDS011;919;48.274;12.292;2022-08-20T09:31:43;19.70;;;17.70;;
1799;SDS011;919;48.274;12.292;2022-08-20T09:34:09;22.70;;;20.40;;
1799;SDS011;919;48.274;12.292;2022-08-20T09:36:37;17.77;;;15.97;;
1799;SDS011;919;48.274;12.292;2022-08-20T09:39:03;16.70;;;14.93;;
1799;SDS011;919;48.274;12.292;2022-08-20T09:41:30;18.33;;;16.53;;
1799;SDS011;919;48.274;12.292;2022-08-20T09:43:57;14.10;;;12.53;;
1799;SDS011;919;48.274;12.292;2022-08-20T09:46:24;14.70;;;13.30;;
1799;SDS011;919;48.274;12.292;2022-08-20T09:48:52;11.63;;;10.53;;
1799;SDS011;919;48.274;12.292;2022-08-20T09:51:19;14.60;;;12.03;;
1799;SDS011;919;48.274;12.292;2022-08-20T09:53:46;13.63;;;12.27;;
1799;SDS011;919;48.274;12.292;2022-08-20T09:56:14;12.37;;;11.07;;
1799;SDS011;919;48.274;12.292;2022-08-20T09:58:42;14.20;;;11.40;;
1799;SDS011;919;48.274;12.292;2022-08-20T10:01:14;20.13;;;14.00;;
1799;SDS011;919;48.274;12.292;2022-08-20T10:03:42;15.70;;;14.10;;
1799;SDS011;919;48.274;12.292;2022-08-20T10:06:13;12.70;;;11.40;;
1799;SDS011;919;48.274;12.292;2022-08-20T10:08:40;17.83;;;13.87;;
1799;SDS011;919;48.274;12.292;2022-08-20T10:11:07;14.10;;;12.73;;
1799;SDS011;919;48.274;12.292;2022-08-20T10:13:34;14.27;;;12.67;;
1799;SDS011;919;48.274;12.292;2022-08-20T10:16:01;13.87;;;12.53;;
1799;SDS011;919;48.274;12.292;2022-08-20T10:18:28;17.30;;;15.43;;
1799;SDS011;919;48.274;12.292;2022-08-20T10:20:54;16.33;;;14.30;;
1799;SDS011;919;48.274;12.292;2022-08-20T10:23:23;14.20;;;12.80;;
1799;SDS011;919;48.274;12.292;2022-08-20T10:25:49;15.83;;;14.20;;
1799;SDS011;919;48.274;12.292;2022-08-20T10:28:16;14.43;;;12.93;;
1799;SDS011;919;48.274;12.292;2022-08-20T10:30:43;13.10;;;11.90;;
1799;SDS011;919;48.274;12.292;2022-08-20T10:33:10;15.00;;;13.50;;
1799;SDS011;919;48.274;12.292;2022-08-20T10:35:37;12.20;;;10.90;;
1799;SDS011;919;48.274;12.292;2022-08-20T10:38:04;15.67;;;13.00;;
1799;SDS011;919;48.274;12.292;2022-08-20T10:40:32;14.57;;;13.10;;
1799;SDS011;919;48.274;12.292;2022-08-20T10:42:58;15.23;;;13.73;;
1799;SDS011;919;48.274;12.292;2022-08-20T10:45:25;13.93;;;12.47;;
1799;SDS011;919;48.274;12.292;2022-08-20T10:47:52;16.67;;;14.07;;
1799;SDS011;919;48.274;12.292;2022-08-20T10:50:20;15.43;;;13.87;;
1799;SDS011;919;48.274;12.292;2022-08-20T10:52:47;12.03;;;10.80;;
1799;SDS011;919;48.274;12.292;2022-08-20T10:55:14;12.50;;;11.30;;
1799;SDS011;919;48.274;12.292;2022-08-20T10:57:42;14.77;;;12.00;;
1799;SDS011;919;48.274;12.292;2022-08-20T11:00:11;14.53;;;12.67;;
1799;SDS011;919;48.274;12.292;2022-08-20T11:02:39;11.87;;;10.67;;
1799;SDS011;919;48.274;12.292;2022-08-20T11:05:06;11.83;;;10.63;;
1799;SDS011;919;48.274;12.292;2022-08-20T11:07:34;12.37;;;10.90;;
1799;SDS011;919;48.274;12.292;2022-08-20T11:10:06;12.33;;;11.13;;
1799;SDS011;919;48.274;12.292;2022-08-20T11:12:33;13.70;;;12.30;;
1799;SDS011;919;48.274;12.292;2022-08-20T11:15:03;13.77;;;12.33;;
1799;SDS011;919;48.274;12.292;2022-08-20T11:17:35;13.63;;;12.23;;
1799;SDS011;919;48.274;12.292;2022-08-20T11:20:06;14.03;;;12.63;;
1799;SDS011;919;48.274;12.292;2022-08-20T11:22:34;15.83;;;14.33;;
1799;SDS011;919;48.274;12.292;2022-08-20T11:25:01;13.73;;;12.33;;
1799;SDS011;919;48.274;12.292;2022-08-20T11:27:29;14.80;;;13.30;;
1799;SDS011;919;48.274;12.292;2022-08-20T11:30:02;13.13;;;11.93;;
1799;SDS011;919;48.274;12.292;2022-08-20T11:32:29;12.87;;;11.63;;
1799;SDS011;919;48.274;12.292;2022-08-20T11:34:56;13.33;;;12.00;;
1799;SDS011;919;48.274;12.292;2022-08-20T11:37:23;13.90;;;12.50;;
1799;SDS011;919;48.274;12.292;2022-08-20T11:39:50;16.33;;;14.63;;
1799;SDS011;919;48.274;12.292;2022-08-20T11:42:17;14.37;;;12.97;;
1799;SDS011;919;48.274;12.292;2022-08-20T11:44:44;15.47;;;13.80;;
1799;SDS011;919;48.274;12.292;2022-08-20T11:47:20;13.73;;;12.37;;
1799;SDS011;919;48.274;12.292;2022-08-20T11:49:54;14.13;;;12.73;;
1799;SDS011;919;48.274;12.292;2022-08-20T11:52:22;13.60;;;12.30;;
1799;SDS011;919;48.274;12.292;2022-08-20T11:54:49;14.53;;;13.13;;
1799;SDS011;919;48.274;12.292;2022-08-20T11:57:18;12.47;;;11.27;;
1799;SDS011;919;48.274;12.292;2022-08-20T11:59:47;14.47;;;13.03;;
1799;SDS011;919;48.274;12.292;2022-08-20T12:02:15;14.90;;;13.60;;
1799;SDS011;919;48.274;12.292;2022-08-20T12:04:42;14.30;;;12.63;;
1799;SDS011;919;48.274;12.292;2022-08-20T12:07:10;12.30;;;11.10;;
1799;SDS011;919;48.274;12.292;2022-08-20T12:09:38;12.90;;;11.80;;
1799;SDS011;919;48.274;12.292;2022-08-20T12:12:06;12.90;;;11.60;;
1799;SDS011;919;48.274;12.292;2022-08-20T12:14:33;14.37;;;11.90;;
1799;SDS011;919;48.274;12.292;2022-08-20T12:17:06;16.30;;;14.80;;
1799;SDS011;919;48.274;12.292;2022-08-20T12:19:36;14.97;;;13.47;;
1799;SDS011;919;48.274;12.292;2022-08-20T12:22:03;14.53;;;12.50;;
1799;SDS011;919;48.274;12.292;2022-08-20T12:24:30;12.83;;;11.63;;
1799;SDS011;919;48.274;12.292;2022-08-20T12:27:06;15.07;;;12.10;;
1799;SDS011;919;48.274;12.292;2022-08-20T12:29:35;19.23;;;17.37;;
1799;SDS011;919;48.274;12.292;2022-08-20T12:32:02;17.47;;;15.83;;
1799;SDS011;919;48.274;12.292;2022-08-20T12:34:30;14.00;;;12.53;;
1799;SDS011;919;48.274;12.292;2022-08-20T12:37:00;15.10;;;13.60;;
1799;SDS011;919;48.274;12.292;2022-08-20T12:39:29;13.37;;;12.07;;
1799;SDS011;919;48.274;12.292;2022-08-20T12:41:57;13.60;;;12.20;;
1799;SDS011;919;48.274;12.292;2022-08-20T12:44:24;14.80;;;13.30;;
1799;SDS011;919;48.274;12.292;2022-08-20T12:46:50;16.40;;;14.80;;
1799;SDS011;919;48.274;12.292;2022-08-20T12:49:17;13.63;;;12.43;;
1799;SDS011;919;48.274;12.292;2022-08-20T12:51:44;13.03;;;11.80;;
1799;SDS011;919;48.274;12.292;2022-08-20T12:54:12;11.67;;;10.47;;
1799;SDS011;919;48.274;12.292;2022-08-20T12:56:38;12.60;;;11.40;;
1799;SDS011;919;48.274;12.292;2022-08-20T12:59:05;12.93;;;11.73;;
1799;SDS011;919;48.274;12.292;2022-08-20T13:01:32;13.37;;;12.07;;
1799;SDS011;919;48.274;12.292;2022-08-20T13:03:58;12.60;;;11.30;;
1799;SDS011;919;48.274;12.292;2022-08-20T13:06:25;12.27;;;11.07;;
1799;SDS011;919;48.274;12.292;2022-08-20T13:08:52;13.50;;;11.97;;
1799;SDS011;919;48.274;12.292;2022-08-20T13:11:20;14.03;;;12.67;;
1799;SDS011;919;48.274;12.292;2022-08-20T13:13:47;13.93;;;12.57;;
1799;SDS011;919;48.274;12.292;2022-08-20T13:16:13;13.00;;;11.77;;
1799;SDS011;919;48.274;12.292;2022-08-20T13:18:40;12.83;;;11.60;;
1799;SDS011;919;48.274;12.292;2022-08-20T13:21:07;12.77;;;11.57;;
1799;SDS011;919;48.274;12.292;2022-08-20T13:23:34;14.70;;;13.10;;
1799;SDS011;919;48.274;12.292;2022-08-20T13:26:01;15.63;;;14.13;;
1799;SDS011;919;48.274;12.292;2022-08-20T13:28:30;13.20;;;11.90;;
1799;SDS011;919;48.274;12.292;2022-08-20T13:30:57;11.23;;;10.10;;
1799;SDS011;919;48.274;12.292;2022-08-20T13:33:26;12.60;;;11.30;;
1799;SDS011;919;48.274;12.292;2022-08-20T13:35:54;15.80;;;13.03;;
1799;SDS011;919;48.274;12.292;2022-08-20T13:38:21;15.13;;;13.63;;
1799;SDS011;919;48.274;12.292;2022-08-20T13:40:48;14.37;;;12.97;;
1799;SDS011;919;48.274;12.292;2022-08-20T13:43:15;15.60;;;13.63;;
1799;SDS011;919;48.274;12.292;2022-08-20T13:45:43;15.83;;;12.97;;
1799;SDS011;919;48.274;12.292;2022-08-20T13:48:10;12.97;;;10.90;;
1799;SDS011;919;48.274;12.292;2022-08-20T13:50:36;14.93;;;13.43;;
1799;SDS011;919;48.274;12.292;2022-08-20T13:53:03;16.03;;;11.70;;
1799;SDS011;919;48.274;12.292;2022-08-20T13:55:30;14.30;;;12.27;;
1799;SDS011;919;48.274;12.292;2022-08-20T13:58:02;13.37;;;12.03;;
1799;SDS011;919;48.274;12.292;2022-08-20T14:00:31;12.93;;;11.67;;
1799;SDS011;919;48.274;12.292;2022-08-20T14:03:00;13.63;;;12.43;;
1799;SDS011;919;48.274;12.292;2022-08-20T14:05:28;13.33;;;12.07;;
1799;SDS011;919;48.274;12.292;2022-08-20T14:08:02;13.07;;;11.87;;
1799;SDS011;919;48.274;12.292;2022-08-20T14:10:31;14.93;;;13.53;;
1799;SDS011;919;48.274;12.292;2022-08-20T14:12:58;14.87;;;13.37;;
1799;SDS011;919;48.274;12.292;2022-08-20T14:15:27;13.97;;;12.63;;
1799;SDS011;919;48.274;12.292;2022-08-20T14:17:55;15.83;;;14.30;;
1799;SDS011;919;48.274;12.292;2022-08-20T14:20:25;17.10;;;14.40;;
1799;SDS011;919;48.274;12.292;2022-08-20T14:22:52;15.17;;;13.60;;
1799;SDS011;919;48.274;12.292;2022-08-20T14:25:21;15.00;;;13.57;;
1799;SDS011;919;48.274;12.292;2022-08-20T14:27:48;13.70;;;12.40;;
1799;SDS011;919;48.274;12.292;2022-08-20T14:30:17;14.80;;;13.40;;
1799;SDS011;919;48.274;12.292;2022-08-20T14:32:46;14.03;;;12.63;;
1799;SDS011;919;48.274;12.292;2022-08-20T14:35:13;13.73;;;12.50;;
1799;SDS011;919;48.274;12.292;2022-08-20T14:37:42;14.37;;;12.87;;
1799;SDS011;919;48.274;12.292;2022-08-20T14:40:13;14.77;;;13.27;;
1799;SDS011;919;48.274;12.292;2022-08-20T14:42:41;15.13;;;13.67;;
1799;SDS011;919;48.274;12.292;2022-08-20T14:45:09;14.13;;;12.83;;
1799;SDS011;919;48.274;12.292;2022-08-20T14:47:38;15.20;;;13.80;;
1799;SDS011;919;48.274;12.292;2022-08-20T14:50:08;16.60;;;14.67;;
1799;SDS011;919;48.274;12.292;2022-08-20T14:52:38;14.83;;;13.53;;
1799;SDS011;919;48.274;12.292;2022-08-20T14:55:08;16.13;;;14.63;;
1799;SDS011;919;48.274;12.292;2022-08-20T14:57:36;12.80;;;11.60;;
1799;SDS011;919;48.274;12.292;2022-08-20T15:00:05;14.30;;;12.90;;
1799;SDS011;919;48.274;12.292;2022-08-20T15:02:34;15.57;;;14.17;;
1799;SDS011;919;48.274;12.292;2022-08-20T15:05:01;15.77;;;14.27;;